createdAt,value
2023-05-08T06:04:46.698Z,101649.55
2023-05-08T06:05:50.967Z,101650.23
2023-05-08T06:06:52.949Z,101652.14
2023-05-08T06:07:55.089Z,101650.07
2023-05-08T06:08:59.160Z,101648.39
2023-05-08T06:10:01.397Z,101643.55
2023-05-08T06:11:03.717Z,101641.85
2023-05-08T06:12:05.796Z,101642.12
2023-05-08T06:13:08.050Z,101636.84
2023-05-08T06:14:10.130Z,101637.11
2023-05-08T06:15:13.356Z,101640.98
2023-05-08T06:16:15.932Z,101646.03
2023-05-08T06:17:17.993Z,101646.30
2023-05-08T06:18:20.820Z,101647.82
2023-05-08T06:19:23.602Z,101652.50
2023-05-08T06:20:26.493Z,101648.89
2023-05-08T06:21:29.372Z,101638.11
2023-05-08T06:22:31.481Z,101647.95
2023-05-08T06:23:33.598Z,101643.83
2023-05-08T06:24:35.851Z,101649.64
2023-05-08T06:25:40.548Z,101638.75
2023-05-08T06:26:42.832Z,101641.35
2023-05-08T06:27:44.920Z,101644.70
2023-05-08T06:28:47.084Z,101636.73
2023-05-08T06:29:49.954Z,101649.71
2023-05-08T06:30:52.449Z,101639.75
2023-05-08T06:31:54.689Z,101639.33
2023-05-08T06:32:56.920Z,101640.80
2023-05-08T06:33:59.570Z,101641.45
2023-05-08T06:35:01.950Z,101640.12
2023-05-08T06:36:08.878Z,101640.34
2023-05-08T06:37:11.348Z,101637.92
2023-05-08T06:38:13.654Z,101637.50
2023-05-08T06:39:15.777Z,101635.50
2023-05-08T06:40:18.032Z,101643.05
2023-05-08T06:41:20.115Z,101634.22
2023-05-08T06:42:22.156Z,101639.54
2023-05-08T06:43:25.450Z,101643.25
2023-05-08T06:44:27.746Z,101642.75
2023-05-08T06:45:30.218Z,101639.19
2023-05-08T06:46:32.419Z,101641.89
2023-05-08T06:47:34.826Z,101635.41
2023-05-08T06:48:37.150Z,101638.19
2023-05-08T06:49:39.254Z,101634.63
2023-05-08T06:50:41.322Z,101636.63
2023-05-08T06:51:43.465Z,101634.88
2023-05-08T06:52:45.471Z,101637.09
2023-05-08T06:53:48.496Z,101635.02
2023-05-08T06:54:50.784Z,101636.58
2023-05-08T06:55:52.816Z,101645.92
2023-05-08T06:56:55.178Z,101639.05
2023-05-08T06:57:57.248Z,101639.40
2023-05-08T06:59:07.653Z,101638.55
2023-05-08T07:01:19.078Z,101641.94
2023-05-08T07:02:24.968Z,101645.64
2023-05-08T07:03:30.191Z,101643.14
2023-05-08T07:04:32.381Z,101637.44
2023-05-08T07:05:36.464Z,101642.39
2023-05-08T07:06:42.110Z,101641.89
2023-05-08T07:07:47.664Z,101641.38
2023-05-08T07:10:15.958Z,101635.47
2023-05-08T07:11:24.396Z,101638.17
2023-05-08T07:12:29.896Z,101637.03
2023-05-08T07:13:38.921Z,101643.89
2023-05-08T07:14:44.979Z,101644.39
2023-05-08T07:17:16.476Z,101646.92
2023-05-08T07:18:21.022Z,101643.00
2023-05-08T07:19:26.490Z,101647.00
2023-05-08T07:20:30.282Z,101640.14
2023-05-08T07:21:32.594Z,101640.39
2023-05-08T07:24:03.653Z,101640.17
2023-05-08T07:25:08.033Z,101637.47
2023-05-08T07:26:10.082Z,101647.02
2023-05-08T07:27:15.383Z,101629.91
2023-05-08T07:28:17.630Z,101635.11
2023-05-08T07:29:19.693Z,101638.17
2023-05-08T07:30:22.163Z,101636.09
2023-05-08T07:31:24.349Z,101636.87
2023-05-08T07:32:26.516Z,101641.55
2023-05-08T07:33:28.614Z,101635.31
2023-05-08T07:34:32.498Z,101631.05
2023-05-08T07:35:34.769Z,101634.33
2023-05-08T07:36:39.297Z,101642.31
2023-05-08T07:37:41.654Z,101633.27
2023-05-08T07:38:43.715Z,101641.28
2023-05-08T07:39:45.763Z,101640.32
2023-05-08T07:40:47.824Z,101642.59
2023-05-08T07:41:50.183Z,101640.59
2023-05-08T07:45:28.528Z,101632.61
2023-05-08T07:46:30.829Z,101640.09
2023-05-08T07:47:33.003Z,101639.31
2023-05-08T07:48:35.252Z,101635.56
2023-05-08T07:49:37.332Z,101638.61
2023-05-08T07:50:39.459Z,101639.75
2023-05-08T07:51:41.620Z,101643.23
2023-05-08T07:52:43.714Z,101637.75
2023-05-08T07:53:45.764Z,101638.89
2023-05-08T07:54:47.790Z,101631.33
2023-05-08T07:55:49.800Z,101636.70
2023-05-08T07:56:51.931Z,101636.61
2023-05-08T07:57:54.201Z,101627.75
2023-05-08T07:58:56.388Z,101634.53
2023-05-08T08:00:04.346Z,101631.67
2023-05-08T08:01:11.118Z,101628.69
2023-05-08T08:06:41.125Z,101632.95
2023-05-08T08:07:43.207Z,101630.25
2023-05-08T08:08:45.532Z,101623.91
2023-05-08T08:09:47.634Z,101635.04
2023-05-08T08:10:50.174Z,101641.30
2023-05-08T08:11:52.179Z,101634.69
2023-05-08T08:12:55.711Z,101637.47
2023-05-08T08:13:58.004Z,101624.10
2023-05-08T08:14:59.944Z,101627.41
2023-05-08T08:16:02.144Z,101627.05
2023-05-08T08:17:04.266Z,101630.19
2023-05-08T08:18:06.394Z,101624.45
2023-05-08T08:19:08.674Z,101631.30
2023-05-08T08:20:12.883Z,101628.23
2023-05-08T08:21:14.942Z,101629.13
2023-05-08T08:22:16.943Z,101629.17
2023-05-08T08:23:19.205Z,101622.55
2023-05-08T08:24:21.164Z,101616.57
2023-05-08T08:25:25.387Z,101619.04
2023-05-08T08:26:27.949Z,101626.33
2023-05-08T08:27:30.090Z,101628.45
2023-05-08T08:28:32.193Z,101631.34
2023-05-08T08:29:34.300Z,101627.11
2023-05-08T08:30:36.372Z,101623.22
2023-05-08T08:31:38.613Z,101624.58
2023-05-08T08:32:41.246Z,101613.33
2023-05-08T08:33:43.445Z,101617.00
2023-05-08T08:34:45.697Z,101615.33
2023-05-08T08:35:47.727Z,101619.69
2023-05-08T08:36:49.829Z,101619.89
2023-05-08T08:37:52.026Z,101626.25
2023-05-08T08:38:54.249Z,101623.12
2023-05-08T08:39:56.733Z,101619.45
2023-05-08T08:40:59.095Z,101619.00
2023-05-08T08:42:05.492Z,101618.22
2023-05-08T08:43:09.742Z,101618.42
2023-05-08T08:44:11.809Z,101616.64
2023-05-08T08:45:14.098Z,101619.43
2023-05-08T08:46:16.878Z,101613.73
2023-05-08T08:47:19.297Z,101607.81
2023-05-08T08:48:21.655Z,101606.81
2023-05-08T08:49:30.620Z,101613.17
2023-05-08T08:50:33.093Z,101615.52
2023-05-08T08:51:58.638Z,101599.92
2023-05-08T08:54:30.159Z,101609.72
2023-05-08T08:55:32.429Z,101613.71
2023-05-08T08:56:36.324Z,101613.56
2023-05-08T08:57:41.347Z,101613.44
2023-05-08T08:59:01.995Z,101607.61
2023-05-08T09:00:22.980Z,101614.50
2023-05-08T09:01:25.664Z,101611.41
2023-05-08T09:02:27.884Z,101607.14
2023-05-08T09:03:31.288Z,101608.36
2023-05-08T09:04:33.606Z,101614.38
2023-05-08T09:05:35.682Z,101610.46
2023-05-08T09:06:38.014Z,101614.56
2023-05-08T09:07:40.174Z,101614.86
2023-05-08T09:09:23.366Z,101618.86
2023-05-08T09:10:38.838Z,101612.86
2023-05-08T09:11:41.093Z,101618.77
2023-05-08T09:12:43.442Z,101614.33
2023-05-08T09:13:45.760Z,101611.33
2023-05-08T09:14:47.883Z,101605.92
2023-05-08T09:15:50.223Z,101611.28
2023-05-08T09:18:03.101Z,101609.70
2023-05-08T09:19:06.185Z,101617.38
2023-05-08T09:20:12.247Z,101607.70
2023-05-08T09:21:14.634Z,101618.06
2023-05-08T09:22:17.283Z,101610.05
2023-05-08T09:23:19.324Z,101604.81
2023-05-08T09:24:21.412Z,101607.16
2023-05-08T09:25:23.429Z,101608.28
2023-05-08T09:26:35.839Z,101603.36
2023-05-08T09:27:38.209Z,101604.82
2023-05-08T09:30:07.008Z,101604.62
2023-05-08T09:31:09.293Z,101606.28
2023-05-08T09:33:20.299Z,101593.13
2023-05-08T09:35:35.998Z,101594.48
2023-05-08T09:36:38.205Z,101599.77
2023-05-08T09:37:41.920Z,101592.81
2023-05-08T09:38:44.145Z,101590.36
2023-05-08T09:39:46.310Z,101599.85
2023-05-08T09:40:52.088Z,101610.91
2023-05-08T09:41:58.801Z,101599.30
2023-05-08T09:43:04.738Z,101598.98
2023-05-08T09:44:06.842Z,101606.43
2023-05-08T09:45:11.211Z,101610.14
2023-05-08T09:46:22.535Z,101608.66
2023-05-08T09:47:25.249Z,101598.38
2023-05-08T09:48:37.269Z,101602.50
2023-05-08T09:49:40.087Z,101602.40
2023-05-08T09:50:43.627Z,101596.48
2023-05-08T09:51:52.824Z,101599.05
2023-05-08T09:52:56.919Z,101595.04
2023-05-08T09:53:59.080Z,101601.30
2023-05-08T09:55:03.857Z,101595.16
2023-05-08T09:56:06.479Z,101596.28
2023-05-08T09:57:11.793Z,101594.05
2023-05-08T09:58:13.889Z,101592.12
2023-05-08T09:59:23.673Z,101593.91
2023-05-08T10:00:27.336Z,101603.06
2023-05-08T10:01:34.201Z,101592.00
2023-05-08T10:02:37.461Z,101592.34
2023-05-08T10:05:32.180Z,101589.33
2023-05-08T10:06:34.767Z,101586.80
2023-05-08T10:07:36.787Z,101583.11
2023-05-08T10:08:38.926Z,101584.11
2023-05-08T10:09:50.764Z,101590.03
2023-05-08T10:10:46.998Z,101587.43
2023-05-08T10:11:49.990Z,101585.76
2023-05-08T10:12:52.985Z,101588.99
2023-05-08T10:13:55.360Z,101585.42
2023-05-08T10:16:07.587Z,101593.45
2023-05-08T10:17:09.728Z,101591.11
2023-05-08T10:18:15.883Z,101592.70
2023-05-08T10:19:20.342Z,101582.23
2023-05-08T10:20:22.527Z,101588.12
2023-05-08T10:21:28.601Z,101590.13
2023-05-08T10:22:30.755Z,101584.69
2023-05-08T10:23:34.116Z,101584.69
2023-05-08T10:24:38.059Z,101580.41
2023-05-08T10:25:43.135Z,101583.09
2023-05-08T10:27:06.271Z,101585.81
2023-05-08T10:28:10.460Z,101581.77
2023-05-08T10:30:24.962Z,101577.41
2023-05-08T10:31:33.863Z,101580.53
2023-05-08T10:33:46.849Z,101582.66
2023-05-08T10:34:53.273Z,101579.75
2023-05-08T10:35:55.554Z,101585.22
2023-05-08T10:36:57.697Z,101577.97
2023-05-08T10:37:59.872Z,101579.53
2023-05-08T10:39:01.881Z,101583.78
2023-05-08T10:40:06.280Z,101573.95
2023-05-08T10:41:09.320Z,101581.43
2023-05-08T10:42:14.550Z,101574.51
2023-05-08T10:43:16.752Z,101587.23
2023-05-08T10:44:18.754Z,101574.28
2023-05-08T10:45:20.765Z,101575.73
2023-05-08T10:46:29.741Z,101577.08
2023-05-08T10:47:55.748Z,101578.86
2023-05-08T10:49:02.019Z,101592.90
2023-05-08T10:50:07.916Z,101580.28
2023-05-08T10:51:19.990Z,101584.30
2023-05-08T10:52:33.482Z,101574.92
2023-05-08T10:53:47.811Z,101582.18
2023-05-08T10:55:18.114Z,101579.76
2023-05-08T10:56:28.087Z,101580.42
2023-05-08T10:57:30.756Z,101587.88
2023-05-08T10:58:33.667Z,101583.22
2023-05-08T10:59:36.157Z,101576.97
2023-05-08T11:01:00.256Z,101586.02
2023-05-08T11:02:06.813Z,101579.95
2023-05-08T11:03:20.043Z,101586.45
2023-05-08T11:04:20.449Z,101580.09
2023-05-08T11:05:24.509Z,101579.53
2023-05-08T11:06:44.167Z,101585.45
2023-05-08T11:07:56.702Z,101596.61
2023-05-08T11:09:00.650Z,101605.21
2023-05-08T11:10:07.361Z,101590.67
2023-05-08T11:11:23.124Z,101586.87
2023-05-08T11:12:26.216Z,101589.88
2023-05-08T11:13:43.093Z,101593.34
2023-05-08T11:15:01.731Z,101588.54
2023-05-08T11:16:08.320Z,101587.76
2023-05-08T11:17:10.988Z,101590.55
2023-05-08T11:18:15.920Z,101591.97
2023-05-08T11:19:18.859Z,101593.08
2023-05-08T11:20:29.171Z,101591.41
2023-05-08T11:21:32.486Z,101584.26
2023-05-08T11:22:37.402Z,101592.52
2023-05-08T11:23:39.566Z,101585.82
2023-05-08T11:24:57.593Z,101590.63
2023-05-08T11:26:05.543Z,101591.33
2023-05-08T11:27:08.330Z,101592.86
2023-05-08T11:28:11.195Z,101584.30
2023-05-08T11:29:16.966Z,101587.66
2023-05-08T11:30:26.029Z,101589.22
2023-05-08T11:31:49.322Z,101579.84
2023-05-08T11:38:27.256Z,101576.61
2023-05-08T11:39:29.643Z,101582.46
2023-05-08T11:40:48.688Z,101582.02
2023-05-08T11:41:51.098Z,101579.11
2023-05-08T11:42:56.371Z,101578.77
2023-05-08T11:44:04.842Z,101581.56
2023-05-08T11:45:15.015Z,101581.23
2023-05-08T11:46:18.954Z,101592.29
2023-05-08T11:47:21.023Z,101591.95
2023-05-08T11:48:25.001Z,101597.73
2023-05-08T11:49:29.770Z,101584.80
2023-05-08T11:50:31.037Z,101584.20
2023-05-08T11:51:33.125Z,101582.98
2023-05-08T11:52:36.423Z,101592.73
2023-05-08T11:53:40.836Z,101594.15
2023-05-08T11:54:43.092Z,101583.31
2023-05-08T11:55:49.015Z,101583.31
2023-05-08T11:56:53.956Z,101580.97
2023-05-08T11:57:56.145Z,101584.80
2023-05-08T11:59:05.850Z,101579.55
2023-05-08T12:00:12.002Z,101579.78
2023-05-08T12:01:19.807Z,101584.19
2023-05-08T12:02:36.585Z,101579.05
2023-05-08T12:03:39.054Z,101580.61
2023-05-08T12:04:45.351Z,101581.70
2023-05-08T12:05:49.342Z,101574.70
2023-05-08T12:06:51.614Z,101579.50
2023-05-08T12:07:54.157Z,101576.00
2023-05-08T12:09:01.015Z,101576.78
2023-05-08T12:10:05.007Z,101583.81
2023-05-08T12:11:07.084Z,101586.94
2023-05-08T12:12:09.394Z,101581.68
2023-05-08T12:13:24.127Z,101566.72
2023-05-08T12:14:26.522Z,101578.44
2023-05-08T12:16:58.924Z,101581.30
2023-05-08T12:18:01.645Z,101578.44
2023-05-08T12:19:05.856Z,101584.92
2023-05-08T12:20:17.217Z,101585.04
2023-05-08T12:21:20.583Z,101577.44
2023-05-08T12:22:22.660Z,101570.30
2023-05-08T12:23:26.362Z,101590.17
2023-05-08T12:24:28.711Z,101582.13
2023-05-08T12:25:33.444Z,101589.28
2023-05-08T12:26:36.385Z,101584.36
2023-05-08T12:27:38.652Z,101580.78
2023-05-08T12:29:51.181Z,101578.84
2023-05-08T12:30:53.558Z,101576.16
2023-05-08T12:31:55.650Z,101575.83
2023-05-08T12:32:57.782Z,101586.22
2023-05-08T12:34:00.579Z,101575.83
2023-05-08T12:35:02.711Z,101567.33
2023-05-08T12:36:06.604Z,101574.48
2023-05-08T12:37:08.726Z,101571.00
2023-05-08T12:38:10.726Z,101566.85
2023-05-08T12:39:17.022Z,101564.69
2023-05-08T12:40:27.063Z,101563.00
2023-05-08T12:41:29.459Z,101573.16
2023-05-08T12:42:49.820Z,101561.40
2023-05-08T12:43:52.043Z,101568.40
2023-05-08T12:44:54.359Z,101577.56
2023-05-08T12:45:56.475Z,101573.36
2023-05-08T12:46:58.997Z,101576.94
2023-05-08T12:48:07.149Z,101570.69
2023-05-08T12:49:09.415Z,101566.00
2023-05-08T12:50:14.390Z,101560.66
2023-05-08T12:51:17.110Z,101565.47
2023-05-08T12:52:19.490Z,101568.08
2023-05-08T12:53:21.501Z,101559.70
2023-05-08T12:54:36.458Z,101561.27
2023-05-08T12:55:40.258Z,101560.00
2023-05-08T12:56:43.243Z,101555.08
2023-05-08T12:57:45.557Z,101556.52
2023-05-08T12:58:47.766Z,101560.62
2023-05-08T12:59:51.648Z,101554.75
2023-05-08T13:01:07.569Z,101560.95
2023-05-08T13:02:17.604Z,101562.03
2023-05-08T13:03:24.786Z,101560.95
2023-05-08T13:04:29.504Z,101565.76
2023-05-08T13:05:35.032Z,101558.73
2023-05-08T13:06:39.017Z,101556.13
2023-05-08T13:07:41.032Z,101565.86
2023-05-08T13:08:43.484Z,101552.02
2023-05-08T13:09:59.500Z,101554.03
2023-05-08T13:11:04.384Z,101558.05
2023-05-08T13:12:08.383Z,101555.92
2023-05-08T13:13:10.664Z,101554.89
2023-05-08T13:14:13.201Z,101557.69
2023-05-08T13:15:15.645Z,101556.25
2023-05-08T13:16:19.024Z,101553.13
2023-05-08T13:17:39.673Z,101554.36
2023-05-08T13:18:55.772Z,101550.78
2023-05-08T13:19:57.798Z,101553.91
2023-05-08T13:20:59.954Z,101551.56
2023-05-08T13:22:02.154Z,101556.38
2023-05-08T13:23:05.082Z,101556.70
2023-05-08T13:24:07.521Z,101556.49
2023-05-08T13:25:09.552Z,101547.12
2023-05-08T13:26:11.685Z,101548.50
2023-05-08T13:27:13.787Z,101552.43
2023-05-08T13:28:15.804Z,101559.13
2023-05-08T13:29:17.942Z,101548.41
2023-05-08T13:30:20.102Z,101558.02
2023-05-08T13:31:22.125Z,101561.25
2023-05-08T13:32:24.247Z,101556.56
2023-05-08T13:33:26.651Z,101555.03
2023-05-08T13:34:28.625Z,101549.90
2023-05-08T13:35:30.876Z,101554.38
2023-05-08T13:36:33.117Z,101543.53
2023-05-08T13:37:35.190Z,101555.60
2023-05-08T13:38:37.363Z,101554.94
2023-05-08T13:39:39.367Z,101560.19
2023-05-08T13:40:41.778Z,101556.16
2023-05-08T13:41:44.051Z,101558.84
2023-05-08T13:42:46.163Z,101562.64
2023-05-08T13:43:48.217Z,101552.04
2023-05-08T13:44:50.250Z,101559.97
2023-05-08T13:45:52.288Z,101570.60
2023-05-08T13:46:54.567Z,101556.77
2023-05-08T13:47:56.897Z,101559.89
2023-05-08T13:48:59.209Z,101561.90
2023-05-08T13:50:07.723Z,101570.94
2023-05-08T13:51:09.735Z,101558.10
2023-05-08T13:52:11.736Z,101571.83
2023-05-08T13:53:13.705Z,101566.81
2023-05-08T13:54:16.087Z,101565.13
2023-05-08T13:55:18.220Z,101555.09
2023-05-08T13:56:20.499Z,101559.66
2023-05-08T13:57:22.543Z,101551.92
2023-05-08T13:58:24.354Z,101555.72
2023-05-08T13:59:27.712Z,101554.70
2023-05-08T14:00:29.866Z,101555.22
2023-05-08T14:01:32.058Z,101559.45
2023-05-08T14:02:34.526Z,101556.43
2023-05-08T14:03:37.151Z,101549.02
2023-05-08T14:04:41.704Z,101551.95
2023-05-08T14:05:43.780Z,101549.47
2023-05-08T14:06:45.822Z,101554.27
2023-05-08T14:07:47.797Z,101552.26
2023-05-08T14:08:52.784Z,101555.65
2023-05-08T14:09:57.158Z,101558.11
2023-05-08T14:10:59.440Z,101550.97
2023-05-08T14:12:01.483Z,101552.64
2023-05-08T14:13:03.621Z,101550.75
2023-05-08T14:14:05.763Z,101561.02
2023-05-08T14:15:11.779Z,101561.47
2023-05-08T14:16:14.659Z,101564.71
2023-05-08T14:17:17.491Z,101559.13
2023-05-08T14:18:19.500Z,101557.56
2023-05-08T14:19:21.855Z,101563.93
2023-05-08T14:20:23.843Z,101557.12
2023-05-08T14:21:25.973Z,101546.28
2023-05-08T14:22:28.099Z,101557.00
2023-05-08T14:23:30.299Z,101559.01
2023-05-08T14:24:32.282Z,101554.98
2023-05-08T14:25:34.415Z,101555.77
2023-05-08T14:26:36.635Z,101562.02
2023-05-08T14:27:38.971Z,101570.72
2023-05-08T14:28:40.935Z,101556.28
2023-05-08T14:29:42.861Z,101564.81
2023-05-08T14:30:44.929Z,101570.06
2023-05-08T14:31:46.905Z,101565.37
2023-05-08T14:32:48.971Z,101569.06
2023-05-08T14:33:51.416Z,101564.38
2023-05-08T14:34:53.721Z,101556.78
2023-05-08T14:35:55.861Z,101564.19
2023-05-08T14:36:58.076Z,101562.08
2023-05-08T14:38:00.379Z,101560.85
2023-05-08T14:39:03.205Z,101554.60
2023-05-08T14:40:08.169Z,101568.11
2023-05-08T14:41:10.224Z,101558.84
2023-05-08T14:43:16.903Z,101562.75
2023-05-08T14:44:19.555Z,101558.73
2023-05-08T14:45:22.159Z,101565.87
2023-05-08T14:46:24.476Z,101563.41
2023-05-08T14:47:27.658Z,101559.51
2023-05-08T14:48:29.881Z,101548.45
2023-05-08T14:49:38.020Z,101557.50
2023-05-08T14:50:36.036Z,101562.94
2023-05-08T14:51:38.341Z,101557.83
2023-05-08T14:52:40.374Z,101558.73
2023-05-08T14:53:42.411Z,101565.98
2023-05-08T14:54:45.191Z,101553.70
2023-05-08T14:55:48.083Z,101557.73
2023-05-08T14:56:50.877Z,101560.52
2023-05-08T14:57:53.180Z,101564.98
2023-05-08T14:58:55.313Z,101560.52
2023-05-08T14:59:57.312Z,101555.27
2023-05-08T15:00:59.607Z,101557.16
2023-05-08T15:02:01.730Z,101559.17
2023-05-08T15:03:05.272Z,101561.52
2023-05-08T15:04:07.724Z,101554.70
2023-05-08T15:05:16.994Z,101559.84
2023-05-08T15:06:14.327Z,101556.72
2023-05-08T15:07:16.352Z,101556.61
2023-05-08T15:08:18.450Z,101558.41
2023-05-08T15:09:20.600Z,101565.36
2023-05-08T15:10:24.834Z,101551.40
2023-05-08T15:11:27.115Z,101555.75
2023-05-08T15:12:29.122Z,101556.53
2023-05-08T15:13:31.163Z,101556.98
2023-05-08T15:14:33.475Z,101548.27
2023-05-08T15:15:35.469Z,101557.77
2023-05-08T15:16:37.685Z,101564.91
2023-05-08T15:17:41.083Z,101549.84
2023-05-08T15:18:43.236Z,101552.63
2023-05-08T15:19:45.393Z,101549.17
2023-05-08T15:20:49.849Z,101556.42
2023-05-08T15:21:51.993Z,101549.95
2023-05-08T15:22:54.232Z,101560.78
2023-05-08T15:23:56.418Z,101554.86
2023-05-08T15:24:58.520Z,101554.42
